sensor_id;sensor_type;location;lat;lon;timestamp;pressure;altitude;pressure_sealevel;temperature;humidity
29467;BME280;60968;37.490;-122.288;2022-11-15T00:02:33;99087.00;;;11.32;48.38
29467;BME280;60968;37.490;-122.288;2022-11-15T00:05:35;99088.94;;;11.20;48.52
29467;BME280;60968;37.490;-122.288;2022-11-15T00:08:36;99084.66;;;11.15;48.62
29467;BME280;60968;37.490;-122.288;2022-11-15T00:11:37;99085.59;;;11.11;49.71
29467;BME280;60968;37.490;-122.288;2022-11-15T00:14:38;99084.78;;;11.06;50.59
29467;BME280;60968;37.490;-122.288;2022-11-15T00:17:39;99093.47;;;11.05;50.17
29467;BME280;60968;37.490;-122.288;2022-11-15T00:20:40;99091.78;;;11.04;50.89
29467;BME280;60968;37.490;-122.288;2022-11-15T00:23:45;99103.09;;;11.03;50.95
29467;BME280;60968;37.490;-122.288;2022-11-15T00:26:45;99093.56;;;11.01;51.65
29467;BME280;60968;37.490;-122.288;2022-11-15T00:29:48;99093.50;;;11.04;52.54
29467;BME280;60968;37.490;-122.288;2022-11-15T00:32:50;99099.53;;;11.09;53.22
29467;BME280;60968;37.490;-122.288;2022-11-15T00:35:58;99099.50;;;11.10;53.88
29467;BME280;60968;37.490;-122.288;2022-11-15T00:38:59;99109.06;;;11.11;53.88
29467;BME280;60968;37.490;-122.288;2022-11-15T00:42:01;99096.03;;;11.11;54.42
29467;BME280;60968;37.490;-122.288;2022-11-15T00:45:04;99103.91;;;11.08;55.04
29467;BME280;60968;37.490;-122.288;2022-11-15T00:48:06;99101.28;;;11.07;56.14
29467;BME280;60968;37.490;-122.288;2022-11-15T00:51:06;99097.84;;;11.05;56.66
29467;BME280;60968;37.490;-122.288;2022-11-15T00:54:07;99097.91;;;11.02;57.17
29467;BME280;60968;37.490;-122.288;2022-11-15T00:57:08;99097.06;;;10.98;56.95
29467;BME280;60968;37.490;-122.288;2022-11-15T01:00:10;99093.66;;;10.94;56.55
29467;BME280;60968;37.490;-122.288;2022-11-15T01:03:12;99099.84;;;10.87;56.77
29467;BME280;60968;37.490;-122.288;2022-11-15T01:06:12;99109.47;;;10.82;56.91
29467;BME280;60968;37.490;-122.288;2022-11-15T01:09:13;99104.28;;;10.80;57.72
29467;BME280;60968;37.490;-122.288;2022-11-15T01:12:14;99105.16;;;10.79;58.46
29467;BME280;60968;37.490;-122.288;2022-11-15T01:15:15;99104.31;;;10.77;59.11
29467;BME280;60968;37.490;-122.288;2022-11-15T01:18:16;99109.53;;;10.77;58.88
29467;BME280;60968;37.490;-122.288;2022-11-15T01:21:18;99112.16;;;10.74;59.29
29467;BME280;60968;37.490;-122.288;2022-11-15T01:24:19;99112.22;;;10.71;61.08
29467;BME280;60968;37.490;-122.288;2022-11-15T01:27:20;99116.63;;;10.66;61.88
29467;BME280;60968;37.490;-122.288;2022-11-15T01:30:21;99113.16;;;10.64;62.71
29467;BME280;60968;37.490;-122.288;2022-11-15T01:33:22;99117.56;;;10.62;62.64
29467;BME280;60968;37.490;-122.288;2022-11-15T01:36:23;99111.53;;;10.57;62.48
29467;BME280;60968;37.490;-122.288;2022-11-15T01:39:25;99111.56;;;10.54;61.48
29467;BME280;60968;37.490;-122.288;2022-11-15T01:42:26;99112.34;;;10.59;60.99
29467;BME280;60968;37.490;-122.288;2022-11-15T01:45:27;99123.66;;;10.59;61.70
29467;BME280;60968;37.490;-122.288;2022-11-15T01:48:33;99128.00;;;10.57;61.37
29467;BME280;60968;37.490;-122.288;2022-11-15T01:51:34;99123.72;;;10.55;62.06
29467;BME280;60968;37.490;-122.288;2022-11-15T01:54:35;99128.91;;;10.58;61.88
29467;BME280;60968;37.490;-122.288;2022-11-15T01:57:37;99123.72;;;10.56;62.90
29467;BME280;60968;37.490;-122.288;2022-11-15T02:00:41;99129.78;;;10.57;62.84
29467;BME280;60968;37.490;-122.288;2022-11-15T02:04:43;99132.41;;;10.55;63.06
29467;BME280;60968;37.490;-122.288;2022-11-15T02:07:22;99131.56;;;10.52;64.57
29467;BME280;60968;37.490;-122.288;2022-11-15T02:10:25;99129.84;;;10.51;64.75
29467;BME280;60968;37.490;-122.288;2022-11-15T02:13:25;99133.34;;;10.50;65.99
29467;BME280;60968;37.490;-122.288;2022-11-15T02:32:44;99153.31;;;10.47;63.32
29467;BME280;60968;37.490;-122.288;2022-11-15T02:39:15;99155.00;;;10.52;63.96
29467;BME280;60968;37.490;-122.288;2022-11-15T02:42:32;99155.03;;;10.50;64.85
29467;BME280;60968;37.490;-122.288;2022-11-15T02:45:44;99163.72;;;10.51;64.91
29467;BME280;60968;37.490;-122.288;2022-11-15T02:48:47;99159.44;;;10.46;64.80
29467;BME280;60968;37.490;-122.288;2022-11-15T02:51:50;99157.69;;;10.45;65.05
29467;BME280;60968;37.490;-122.288;2022-11-15T02:54:57;99166.41;;;10.43;65.08
29467;BME280;60968;37.490;-122.288;2022-11-15T02:58:06;99175.13;;;10.39;65.43
29467;BME280;60968;37.490;-122.288;2022-11-15T03:05:00;99178.63;;;10.36;65.56
29467;BME280;60968;37.490;-122.288;2022-11-15T03:11:18;99175.22;;;10.29;65.72
29467;BME280;60968;37.490;-122.288;2022-11-15T03:14:28;99179.56;;;10.27;65.86
29467;BME280;60968;37.490;-122.288;2022-11-15T03:17:37;99187.47;;;10.20;66.61
29467;BME280;60968;37.490;-122.288;2022-11-15T03:20:42;99191.78;;;10.19;66.15
29467;BME280;60968;37.490;-122.288;2022-11-15T03:23:45;99188.34;;;10.16;65.69
29467;BME280;60968;37.490;-122.288;2022-11-15T03:26:48;99190.13;;;10.12;65.87
29467;BME280;60968;37.490;-122.288;2022-11-15T03:29:54;99184.97;;;10.07;65.46
29467;BME280;60968;37.490;-122.288;2022-11-15T03:32:58;99193.63;;;10.06;65.70
29467;BME280;60968;37.490;-122.288;2022-11-15T03:35:59;99200.63;;;10.04;65.06
29467;BME280;60968;37.490;-122.288;2022-11-15T03:39:06;99196.28;;;10.02;65.12
29467;BME280;60968;37.490;-122.288;2022-11-15T03:42:32;99192.81;;;10.03;64.96
29467;BME280;60968;37.490;-122.288;2022-11-15T03:45:51;99194.56;;;10.01;65.41
29467;BME280;60968;37.490;-122.288;2022-11-15T03:49:14;99200.63;;;10.01;65.77
29467;BME280;60968;37.490;-122.288;2022-11-15T03:52:18;99195.44;;;9.98;65.97
29467;BME280;60968;37.490;-122.288;2022-11-15T03:55:22;99199.81;;;9.96;65.85
29467;BME280;60968;37.490;-122.288;2022-11-15T03:58:25;99205.03;;;9.96;65.86
29467;BME280;60968;37.490;-122.288;2022-11-15T04:01:26;99209.38;;;9.92;66.42
29467;BME280;60968;37.490;-122.288;2022-11-15T04:04:26;99212.00;;;9.91;65.31
29467;BME280;60968;37.490;-122.288;2022-11-15T04:07:29;99214.63;;;9.89;65.54
29467;BME280;60968;37.490;-122.288;2022-11-15T04:10:30;99218.97;;;9.87;65.84
29467;BME280;60968;37.490;-122.288;2022-11-15T04:13:31;99224.19;;;9.83;66.04
29467;BME280;60968;37.490;-122.288;2022-11-15T04:16:33;99226.84;;;9.78;66.41
29467;BME280;60968;37.490;-122.288;2022-11-15T04:19:35;99222.53;;;9.75;66.18
29467;BME280;60968;37.490;-122.288;2022-11-15T04:22:36;99228.63;;;9.71;66.53
29467;BME280;60968;37.490;-122.288;2022-11-15T04:25:38;99223.47;;;9.67;66.50
29467;BME280;60968;37.490;-122.288;2022-11-15T04:28:39;99233.91;;;9.64;67.12
29467;BME280;60968;37.490;-122.288;2022-11-15T04:31:40;99223.47;;;9.60;66.80
29467;BME280;60968;37.490;-122.288;2022-11-15T04:34:40;99236.53;;;9.57;67.41
29467;BME280;60968;37.490;-122.288;2022-11-15T04:37:43;99240.03;;;9.52;67.74
29467;BME280;60968;37.490;-122.288;2022-11-15T04:40:47;99231.41;;;9.47;67.83
29467;BME280;60968;37.490;-122.288;2022-11-15T04:43:48;99234.88;;;9.46;67.48
29467;BME280;60968;37.490;-122.288;2022-11-15T04:46:48;99231.41;;;9.42;67.50
29467;BME280;60968;37.490;-122.288;2022-11-15T04:49:49;99241.84;;;9.39;67.35
29467;BME280;60968;37.490;-122.288;2022-11-15T04:52:52;99236.63;;;9.40;67.34
29467;BME280;60968;37.490;-122.288;2022-11-15T04:55:53;99236.63;;;9.39;66.88
29467;BME280;60968;37.490;-122.288;2022-11-15T04:58:58;99248.78;;;9.40;66.88
29467;BME280;60968;37.490;-122.288;2022-11-15T05:01:59;99247.03;;;9.40;66.80
29467;BME280;60968;37.490;-122.288;2022-11-15T05:05:00;99249.66;;;9.37;66.97
29467;BME280;60968;37.490;-122.288;2022-11-15T05:08:03;99249.66;;;9.37;67.63
29467;BME280;60968;37.490;-122.288;2022-11-15T05:11:04;99254.84;;;9.39;67.92
29467;BME280;60968;37.490;-122.288;2022-11-15T05:14:05;99260.91;;;9.36;67.48
29467;BME280;60968;37.490;-122.288;2022-11-15T05:17:06;99256.63;;;9.35;67.78
29467;BME280;60968;37.490;-122.288;2022-11-15T05:20:07;99256.63;;;9.35;67.89
29467;BME280;60968;37.490;-122.288;2022-11-15T05:23:09;99260.91;;;9.36;68.61
29467;BME280;60968;37.490;-122.288;2022-11-15T05:26:12;99267.88;;;9.34;69.21
29467;BME280;60968;37.490;-122.288;2022-11-15T05:29:13;99273.09;;;9.33;69.09
29467;BME280;60968;37.490;-122.288;2022-11-15T05:32:14;99274.81;;;9.32;69.26
29467;BME280;60968;37.490;-122.288;2022-11-15T05:35:42;99286.09;;;9.31;69.02
29467;BME280;60968;37.490;-122.288;2022-11-15T05:38:47;99280.06;;;9.24;70.58
29467;BME280;60968;37.490;-122.288;2022-11-15T05:41:51;99280.94;;;9.22;69.60
29467;BME280;60968;37.490;-122.288;2022-11-15T05:44:53;99280.94;;;9.22;69.09
29467;BME280;60968;37.490;-122.288;2022-11-15T05:47:56;99282.69;;;9.15;70.23
29467;BME280;60968;37.490;-122.288;2022-11-15T05:50:59;99279.25;;;9.12;70.01
29467;BME280;60968;37.490;-122.288;2022-11-15T05:54:00;99280.06;;;9.17;69.73
29467;BME280;60968;37.490;-122.288;2022-11-15T05:57:04;99287.03;;;9.15;70.14
29467;BME280;60968;37.490;-122.288;2022-11-15T06:00:05;99284.44;;;9.13;70.44
29467;BME280;60968;37.490;-122.288;2022-11-15T06:03:06;99274.94;;;9.06;71.61
29467;BME280;60968;37.490;-122.288;2022-11-15T06:06:08;99274.94;;;9.06;72.05
29467;BME280;60968;37.490;-122.288;2022-11-15T06:09:09;99271.47;;;9.01;72.80
29467;BME280;60968;37.490;-122.288;2022-11-15T06:12:10;99268.00;;;8.97;73.50
29467;BME280;60968;37.490;-122.288;2022-11-15T06:15:12;99267.19;;;8.92;73.95
29467;BME280;60968;37.490;-122.288;2022-11-15T06:18:13;99268.91;;;8.88;74.77
29467;BME280;60968;37.490;-122.288;2022-11-15T06:21:14;99267.22;;;8.83;75.42
29467;BME280;60968;37.490;-122.288;2022-11-15T06:24:15;99270.66;;;8.82;75.34
29467;BME280;60968;37.490;-122.288;2022-11-15T06:27:15;99268.97;;;8.81;75.23
29467;BME280;60968;37.490;-122.288;2022-11-15T06:30:18;99265.50;;;8.72;76.46
29467;BME280;60968;37.490;-122.288;2022-11-15T06:33:20;99265.53;;;8.71;75.94
29467;BME280;60968;37.490;-122.288;2022-11-15T06:36:21;99275.91;;;8.72;75.65
29467;BME280;60968;37.490;-122.288;2022-11-15T06:39:27;99274.16;;;8.73;75.89
29467;BME280;60968;37.490;-122.288;2022-11-15T06:42:29;99275.03;;;8.75;75.71
29467;BME280;60968;37.490;-122.288;2022-11-15T06:45:31;99265.53;;;8.71;75.97
29467;BME280;60968;37.490;-122.288;2022-11-15T06:48:34;99270.72;;;8.72;75.35
29467;BME280;60968;37.490;-122.288;2022-11-15T06:51:36;99284.56;;;8.79;74.49
29467;BME280;60968;37.490;-122.288;2022-11-15T06:54:37;99280.22;;;8.77;74.99
29467;BME280;60968;37.490;-122.288;2022-11-15T06:57:46;99278.50;;;8.72;75.67
29467;BME280;60968;37.490;-122.288;2022-11-15T07:00:49;99269.84;;;8.70;76.19
29467;BME280;60968;37.490;-122.288;2022-11-15T07:03:50;99275.91;;;8.69;75.30
29467;BME280;60968;37.490;-122.288;2022-11-15T07:06:51;99276.78;;;8.78;74.72
29467;BME280;60968;37.490;-122.288;2022-11-15T07:09:55;99278.50;;;8.74;75.20
29467;BME280;60968;37.490;-122.288;2022-11-15T07:12:56;99279.34;;;8.73;75.31
29467;BME280;60968;37.490;-122.288;2022-11-15T07:15:57;99279.38;;;8.71;75.89
29467;BME280;60968;37.490;-122.288;2022-11-15T07:18:59;99269.84;;;8.75;76.13
29467;BME280;60968;37.490;-122.288;2022-11-15T07:22:01;99275.88;;;8.77;75.03
29467;BME280;60968;37.490;-122.288;2022-11-15T07:25:02;99274.16;;;8.74;74.63
29467;BME280;60968;37.490;-122.288;2022-11-15T07:28:03;99270.69;;;8.75;74.53
29467;BME280;60968;37.490;-122.288;2022-11-15T07:31:07;99275.88;;;8.75;75.82
29467;BME280;60968;37.490;-122.288;2022-11-15T07:34:09;99275.03;;;8.70;75.55
29467;BME280;60968;37.490;-122.288;2022-11-15T07:37:11;99275.06;;;8.64;76.05
29467;BME280;60968;37.490;-122.288;2022-11-15T07:40:12;99281.97;;;8.61;76.90
29467;BME280;60968;37.490;-122.288;2022-11-15T07:43:14;99282.84;;;8.55;76.95
29467;BME280;60968;37.490;-122.288;2022-11-15T07:46:15;99275.06;;;8.60;77.02
29467;BME280;60968;37.490;-122.288;2022-11-15T07:49:16;99272.47;;;8.60;77.46
29467;BME280;60968;37.490;-122.288;2022-11-15T07:52:17;99275.91;;;8.60;78.93
29467;BME280;60968;37.490;-122.288;2022-11-15T07:55:17;99281.97;;;8.57;78.72
29467;BME280;60968;37.490;-122.288;2022-11-15T07:58:18;99281.13;;;8.54;79.35
29467;BME280;60968;37.490;-122.288;2022-11-15T08:01:19;99281.13;;;8.51;80.07
29467;BME280;60968;37.490;-122.288;2022-11-15T08:04:20;99285.44;;;8.43;82.10
29467;BME280;60968;37.490;-122.288;2022-11-15T08:07:22;99290.66;;;8.43;80.40
29467;BME280;60968;37.490;-122.288;2022-11-15T08:10:28;99296.72;;;8.45;80.34
29467;BME280;60968;37.490;-122.288;2022-11-15T08:13:30;99285.44;;;8.33;82.14
29467;BME280;60968;37.490;-122.288;2022-11-15T08:16:31;99290.63;;;8.24;83.63
29467;BME280;60968;37.490;-122.288;2022-11-15T08:19:31;99293.25;;;8.13;85.68
29467;BME280;60968;37.490;-122.288;2022-11-15T08:22:33;99292.38;;;8.05;85.77
29467;BME280;60968;37.490;-122.288;2022-11-15T08:25:35;99299.28;;;8.01;84.25
29467;BME280;60968;37.490;-122.288;2022-11-15T08:28:36;99278.53;;;8.11;81.36
29467;BME280;60968;37.490;-122.288;2022-11-15T08:31:37;99285.44;;;8.05;82.79
29467;BME280;60968;37.490;-122.288;2022-11-15T08:34:38;99287.16;;;7.97;82.01
29467;BME280;60968;37.490;-122.288;2022-11-15T08:37:39;99283.72;;;7.92;82.46
29467;BME280;60968;37.490;-122.288;2022-11-15T08:40:40;99288.88;;;7.78;84.84
29467;BME280;60968;37.490;-122.288;2022-11-15T08:43:40;99294.03;;;7.66;84.85
29467;BME280;60968;37.490;-122.288;2022-11-15T08:46:41;99291.44;;;7.61;83.54
29467;BME280;60968;37.490;-122.288;2022-11-15T08:49:43;99287.13;;;7.60;83.89
29467;BME280;60968;37.490;-122.288;2022-11-15T08:52:44;99293.16;;;7.59;84.17
29467;BME280;60968;37.490;-122.288;2022-11-15T08:55:45;99292.31;;;7.60;83.03
29467;BME280;60968;37.490;-122.288;2022-11-15T08:58:46;99291.44;;;7.58;82.29
29467;BME280;60968;37.490;-122.288;2022-11-15T09:01:47;99289.72;;;7.55;83.03
29467;BME280;60968;37.490;-122.288;2022-11-15T09:04:48;99285.38;;;7.54;82.82
29467;BME280;60968;37.490;-122.288;2022-11-15T09:07:54;99287.09;;;7.51;82.51
29467;BME280;60968;37.490;-122.288;2022-11-15T09:10:56;99287.97;;;7.56;80.94
29467;BME280;60968;37.490;-122.288;2022-11-15T09:13:57;99288.81;;;7.56;80.97
29467;BME280;60968;37.490;-122.288;2022-11-15T09:16:58;99287.97;;;7.58;81.61
29467;BME280;60968;37.490;-122.288;2022-11-15T09:19:59;99286.22;;;7.56;81.21
29467;BME280;60968;37.490;-122.288;2022-11-15T09:23:01;99291.41;;;7.55;80.91
29467;BME280;60968;37.490;-122.288;2022-11-15T09:26:04;99288.81;;;7.56;81.03
29467;BME280;60968;37.490;-122.288;2022-11-15T09:29:05;99293.16;;;7.62;80.44
29467;BME280;60968;37.490;-122.288;2022-11-15T09:32:07;99295.78;;;7.64;80.78
29467;BME280;60968;37.490;-122.288;2022-11-15T09:35:08;99295.75;;;7.62;80.78
29467;BME280;60968;37.490;-122.288;2022-11-15T09:38:09;99294.91;;;7.59;80.88
29467;BME280;60968;37.490;-122.288;2022-11-15T09:47:31;99292.34;;;7.69;80.50
29467;BME280;60968;37.490;-122.288;2022-11-15T09:50:49;99289.75;;;7.72;79.97
29467;BME280;60968;37.490;-122.288;2022-11-15T10:00:41;99287.97;;;7.53;79.69
29467;BME280;60968;37.490;-122.288;2022-11-15T10:03:43;99299.19;;;7.44;79.73
29467;BME280;60968;37.490;-122.288;2022-11-15T10:07:13;99285.31;;;7.33;80.58
29467;BME280;60968;37.490;-122.288;2022-11-15T10:10:41;99281.00;;;7.33;80.89
29467;BME280;60968;37.490;-122.288;2022-11-15T10:13:44;99288.72;;;7.24;81.26
29467;BME280;60968;37.490;-122.288;2022-11-15T10:20:20;99302.59;;;7.31;82.89
29467;BME280;60968;37.490;-122.288;2022-11-15T10:23:22;99304.28;;;7.24;83.71
29467;BME280;60968;37.490;-122.288;2022-11-15T10:26:24;99301.69;;;7.22;84.01
29467;BME280;60968;37.490;-122.288;2022-11-15T10:29:25;99306.88;;;7.22;84.99
29467;BME280;60968;37.490;-122.288;2022-11-15T10:32:26;99316.38;;;7.17;84.49
29467;BME280;60968;37.490;-122.288;2022-11-15T10:35:29;99312.88;;;7.15;86.64
29467;BME280;60968;37.490;-122.288;2022-11-15T10:38:30;99306.88;;;7.26;85.34
29467;BME280;60968;37.490;-122.288;2022-11-15T10:41:36;99313.78;;;7.22;86.65
29467;BME280;60968;37.490;-122.288;2022-11-15T10:44:42;99319.75;;;7.09;87.80
29467;BME280;60968;37.490;-122.288;2022-11-15T10:47:44;99311.97;;;7.02;87.72
29467;BME280;60968;37.490;-122.288;2022-11-15T10:50:46;99315.47;;;7.11;85.36
29467;BME280;60968;37.490;-122.288;2022-11-15T10:53:47;99311.13;;;7.08;84.42
29467;BME280;60968;37.490;-122.288;2022-11-15T10:56:52;99303.34;;;7.07;82.89
29467;BME280;60968;37.490;-122.288;2022-11-15T11:00:27;99301.63;;;7.06;82.17
29467;BME280;60968;37.490;-122.288;2022-11-15T11:03:37;99302.50;;;7.09;82.12
29467;BME280;60968;37.490;-122.288;2022-11-15T11:06:53;99315.53;;;7.26;81.15
29467;BME280;60968;37.490;-122.288;2022-11-15T11:10:18;99310.38;;;7.35;81.21
29467;BME280;60968;37.490;-122.288;2022-11-15T11:13:25;99315.53;;;7.31;82.48
29467;BME280;60968;37.490;-122.288;2022-11-15T11:30:24;99333.72;;;7.37;86.31
29467;BME280;60968;37.490;-122.288;2022-11-15T11:33:36;99332.00;;;7.37;86.79
29467;BME280;60968;37.490;-122.288;2022-11-15T11:37:03;99330.25;;;7.33;88.68
29467;BME280;60968;37.490;-122.288;2022-11-15T11:40:31;99331.94;;;7.30;91.57
29467;BME280;60968;37.490;-122.288;2022-11-15T11:43:44;99340.59;;;7.27;92.42
29467;BME280;60968;37.490;-122.288;2022-11-15T11:47:12;99343.19;;;7.27;92.08
29467;BME280;60968;37.490;-122.288;2022-11-15T11:50:19;99345.78;;;7.30;91.62
29467;BME280;60968;37.490;-122.288;2022-11-15T11:56:57;99344.03;;;7.23;87.15
29467;BME280;60968;37.490;-122.288;2022-11-15T12:09:59;99348.31;;;7.18;84.41
29467;BME280;60968;37.490;-122.288;2022-11-15T12:13:06;99356.09;;;7.18;86.03
29467;BME280;60968;37.490;-122.288;2022-11-15T12:16:27;99356.09;;;7.21;86.46
29467;BME280;60968;37.490;-122.288;2022-11-15T12:19:31;99351.75;;;7.17;86.07
29467;BME280;60968;37.490;-122.288;2022-11-15T12:22:54;99359.53;;;7.14;86.35
29467;BME280;60968;37.490;-122.288;2022-11-15T12:29:40;99370.72;;;7.03;89.57
29467;BME280;60968;37.490;-122.288;2022-11-15T12:33:01;99368.06;;;6.96;91.15
29467;BME280;60968;37.490;-122.288;2022-11-15T12:36:49;99365.47;;;6.94;92.72
29467;BME280;60968;37.490;-122.288;2022-11-15T12:52:30;99362.66;;;6.62;100.00
29467;BME280;60968;37.490;-122.288;2022-11-15T12:55:32;99379.84;;;6.53;100.00
29467;BME280;60968;37.490;-122.288;2022-11-15T12:58:58;99371.31;;;6.65;100.00
29467;BME280;60968;37.490;-122.288;2022-11-15T13:01:59;99375.72;;;6.82;100.00
29467;BME280;60968;37.490;-122.288;2022-11-15T13:08:41;99380.19;;;7.01;100.00
29467;BME280;60968;37.490;-122.288;2022-11-15T13:11:47;99388.78;;;6.97;100.00
29467;BME280;60968;37.490;-122.288;2022-11-15T13:18:31;99381.72;;;6.75;100.00
29467;BME280;60968;37.490;-122.288;2022-11-15T13:21:32;99393.72;;;6.63;100.00
29467;BME280;60968;37.490;-122.288;2022-11-15T13:24:33;99383.31;;;6.54;100.00
29467;BME280;60968;37.490;-122.288;2022-11-15T13:27:40;99381.50;;;6.45;100.00
29467;BME280;60968;37.490;-122.288;2022-11-15T13:33:48;99382.31;;;6.41;100.00
29467;BME280;60968;37.490;-122.288;2022-11-15T13:36:50;99383.25;;;6.49;100.00
29467;BME280;60968;37.490;-122.288;2022-11-15T13:39:51;99387.59;;;6.49;100.00
29467;BME280;60968;37.490;-122.288;2022-11-15T13:42:52;99386.69;;;6.45;100.00
29467;BME280;60968;37.490;-122.288;2022-11-15T13:46:18;99388.34;;;6.37;100.00
29467;BME280;60968;37.490;-122.288;2022-11-15T13:49:29;99391.69;;;6.27;100.00
29467;BME280;60968;37.490;-122.288;2022-11-15T13:52:35;99392.47;;;6.18;100.00
29467;BME280;60968;37.490;-122.288;2022-11-15T13:55:37;99388.13;;;6.14;96.59
29467;BME280;60968;37.490;-122.288;2022-11-15T13:58:39;99381.22;;;6.13;92.73
29467;BME280;60968;37.490;-122.288;2022-11-15T14:01:41;99385.53;;;6.14;92.70
29467;BME280;60968;37.490;-122.288;2022-11-15T14:04:56;99394.28;;;6.28;100.00
29467;BME280;60968;37.490;-122.288;2022-11-15T14:08:05;99383.97;;;6.31;100.00
29467;BME280;60968;37.490;-122.288;2022-11-15T14:11:19;99389.13;;;6.30;100.00
29467;BME280;60968;37.490;-122.288;2022-11-15T14:14:25;99385.66;;;6.26;100.00
29467;BME280;60968;37.490;-122.288;2022-11-15T14:23:53;99395.09;;;6.21;99.25
29467;BME280;60968;37.490;-122.288;2022-11-15T14:27:25;99399.41;;;6.19;97.68
29467;BME280;60968;37.490;-122.288;2022-11-15T14:30:26;99407.09;;;6.14;96.62
29467;BME280;60968;37.490;-122.288;2022-11-15T14:33:37;99405.41;;;6.15;94.18
29467;BME280;60968;37.490;-122.288;2022-11-15T14:36:38;99413.22;;;6.21;92.78
29467;BME280;60968;37.490;-122.288;2022-11-15T14:39:39;99418.38;;;6.21;89.21
29467;BME280;60968;37.490;-122.288;2022-11-15T14:42:40;99417.50;;;6.19;85.12
29467;BME280;60968;37.490;-122.288;2022-11-15T14:45:42;99425.28;;;6.21;84.07
29467;BME280;60968;37.490;-122.288;2022-11-15T14:48:43;99429.63;;;6.22;82.60
29467;BME280;60968;37.490;-122.288;2022-11-15T14:51:44;99429.63;;;6.23;81.47
29467;BME280;60968;37.490;-122.288;2022-11-15T14:54:45;99439.97;;;6.23;81.74
29467;BME280;60968;37.490;-122.288;2022-11-15T14:57:47;99452.91;;;6.23;80.13
29467;BME280;60968;37.490;-122.288;2022-11-15T15:00:48;99452.97;;;6.28;80.22
29467;BME280;60968;37.490;-122.288;2022-11-15T15:03:49;99462.53;;;6.35;79.42
29467;BME280;60968;37.490;-122.288;2022-11-15T15:06:50;99458.28;;;6.43;79.96
29467;BME280;60968;37.490;-122.288;2022-11-15T15:09:52;99462.69;;;6.53;80.90
29467;BME280;60968;37.490;-122.288;2022-11-15T15:12:53;99464.50;;;6.62;79.93
29467;BME280;60968;37.490;-122.288;2022-11-15T15:15:54;99468.06;;;6.74;79.59
29467;BME280;60968;37.490;-122.288;2022-11-15T15:18:56;99460.38;;;6.86;79.26
29467;BME280;60968;37.490;-122.288;2022-11-15T15:21:58;99460.56;;;7.08;76.67
29467;BME280;60968;37.490;-122.288;2022-11-15T15:25:21;99462.44;;;7.30;75.40
29467;BME280;60968;37.490;-122.288;2022-11-15T15:28:23;99457.34;;;7.47;75.26
29467;BME280;60968;37.490;-122.288;2022-11-15T15:31:24;99451.47;;;7.79;71.76
29467;BME280;60968;37.490;-122.288;2022-11-15T15:34:25;99445.50;;;8.03;70.22
29467;BME280;60968;37.490;-122.288;2022-11-15T15:37:26;99453.28;;;8.11;72.20
29467;BME280;60968;37.490;-122.288;2022-11-15T15:40:31;99458.50;;;8.17;72.48
29467;BME280;60968;37.490;-122.288;2022-11-15T15:43:33;99464.59;;;8.32;68.89
29467;BME280;60968;37.490;-122.288;2022-11-15T15:46:34;99462.09;;;8.56;66.56
29467;BME280;60968;37.490;-122.288;2022-11-15T15:49:35;99462.97;;;8.88;59.12
29467;BME280;60968;37.490;-122.288;2022-11-15T15:52:36;99468.13;;;9.13;58.90
29467;BME280;60968;37.490;-122.288;2022-11-15T15:55:37;99472.47;;;9.17;60.07
29467;BME280;60968;37.490;-122.288;2022-11-15T15:58:38;99483.75;;;9.17;61.56
29467;BME280;60968;37.490;-122.288;2022-11-15T16:01:39;99478.53;;;9.23;61.92
29467;BME280;60968;37.490;-122.288;2022-11-15T16:04:40;99479.38;;;9.36;59.38
29467;BME280;60968;37.490;-122.288;2022-11-15T16:07:41;99481.94;;;9.56;58.98
29467;BME280;60968;37.490;-122.288;2022-11-15T16:10:42;99482.66;;;11.33;52.66
29467;BME280;60968;37.490;-122.288;2022-11-15T16:13:44;99477.69;;;15.54;42.95
29467;BME280;60968;37.490;-122.288;2022-11-15T16:16:46;99485.78;;;17.49;36.09
29467;BME280;60968;37.490;-122.288;2022-11-15T16:19:47;99481.13;;;19.18;35.61
29467;BME280;60968;37.490;-122.288;2022-11-15T16:22:48;99481.06;;;19.61;33.73
29467;BME280;60968;37.490;-122.288;2022-11-15T16:25:51;99486.13;;;20.07;29.95
29467;BME280;60968;37.490;-122.288;2022-11-15T16:28:54;99481.78;;;20.62;30.43
29467;BME280;60968;37.490;-122.288;2022-11-15T16:31:56;99481.94;;;20.59;28.78
29467;BME280;60968;37.490;-122.288;2022-11-15T16:34:56;99476.78;;;20.36;28.23
29467;BME280;60968;37.490;-122.288;2022-11-15T16:37:57;99483.19;;;20.88;28.67
29467;BME280;60968;37.490;-122.288;2022-11-15T16:40:59;99485.94;;;20.86;28.96
29467;BME280;60968;37.490;-122.288;2022-11-15T16:44:00;99489.88;;;20.78;29.30
29467;BME280;60968;37.490;-122.288;2022-11-15T16:47:03;99488.50;;;19.10;28.79
29467;BME280;60968;37.490;-122.288;2022-11-15T16:50:05;99485.41;;;20.22;28.57
29467;BME280;60968;37.490;-122.288;2022-11-15T16:53:07;99487.13;;;21.16;27.07
29467;BME280;60968;37.490;-122.288;2022-11-15T16:56:27;99502.84;;;20.46;27.18
29467;BME280;60968;37.490;-122.288;2022-11-15T16:59:30;99497.38;;;19.71;29.30
29467;BME280;60968;37.490;-122.288;2022-11-15T17:02:30;99504.09;;;20.56;28.01
29467;BME280;60968;37.490;-122.288;2022-11-15T17:05:32;99500.13;;;20.47;28.46
29467;BME280;60968;37.490;-122.288;2022-11-15T17:08:34;99496.69;;;17.38;30.91
29467;BME280;60968;37.490;-122.288;2022-11-15T17:11:35;99501.69;;;15.40;34.49
29467;BME280;60968;37.490;-122.288;2022-11-15T17:14:36;99516.34;;;14.36;35.77
29467;BME280;60968;37.490;-122.288;2022-11-15T17:17:37;99517.22;;;13.49;37.18
29467;BME280;60968;37.490;-122.288;2022-11-15T17:20:39;99519.84;;;13.49;37.73
29467;BME280;60968;37.490;-122.288;2022-11-15T17:23:40;99517.06;;;13.57;37.35
29467;BME280;60968;37.490;-122.288;2022-11-15T17:26:41;99516.56;;;13.83;37.34
29467;BME280;60968;37.490;-122.288;2022-11-15T17:29:42;99518.41;;;13.78;37.52